createdAt,value
2019-02-04T00:01:09.545Z,95140.58
2019-02-04T00:03:37.115Z,95186.84
2019-02-04T00:06:04.480Z,95195.62
2019-02-04T00:08:31.948Z,95207.77
2019-02-04T00:10:59.528Z,95194.95
2019-02-04T00:13:26.930Z,95203.71
2019-02-04T00:15:54.418Z,95203.56
2019-02-04T00:18:21.929Z,95217.73
2019-02-04T00:20:49.362Z,95199.77
2019-02-04T00:23:17.219Z,95207.77
2019-02-04T00:25:44.655Z,95194.19
2019-02-04T00:28:12.092Z,95207.11
2019-02-04T00:30:39.643Z,95207.42
2019-02-04T00:33:07.125Z,95228.52
2019-02-04T00:35:34.550Z,95211.73
2019-02-04T00:38:02.020Z,95225.51
2019-02-04T00:40:29.999Z,95237.50
2019-02-04T00:42:57.482Z,95247.40
2019-02-04T00:45:24.987Z,95258.23
2019-02-04T00:47:52.704Z,95249.91
2019-02-04T00:50:21.081Z,95256.03
2019-02-04T00:52:48.571Z,95254.95
2019-02-04T00:55:16.141Z,95260.36
2019-02-04T00:57:43.901Z,95243.94
2019-02-04T01:00:19.161Z,95251.41
2019-02-04T01:02:46.777Z,95253.29
2019-02-04T01:05:18.266Z,95256.11
2019-02-04T01:07:46.190Z,95254.30
2019-02-04T01:10:15.587Z,95246.69
2019-02-04T01:12:43.112Z,95242.63
2019-02-04T01:15:10.767Z,95256.61
2019-02-04T01:17:38.209Z,95243.39
2019-02-04T01:20:06.775Z,95247.75
2019-02-04T01:22:34.207Z,95254.70
2019-02-04T01:25:01.650Z,95243.69
2019-02-04T01:27:29.304Z,95251.13
2019-02-04T01:29:56.846Z,95264.61
2019-02-04T01:32:24.305Z,95252.73
2019-02-04T01:34:51.722Z,95265.43
2019-02-04T01:37:19.234Z,95255.57
2019-02-04T01:39:46.664Z,95274.78
2019-02-04T01:42:14.108Z,95263.50
2019-02-04T01:44:41.537Z,95271.36
2019-02-04T01:47:14.652Z,95267.92
2019-02-04T01:49:38.418Z,95285.59
2019-02-04T01:52:05.864Z,95275.40
2019-02-04T01:54:33.229Z,95271.81
2019-02-04T01:57:00.656Z,95269.31
2019-02-04T01:59:28.479Z,95270.47
2019-02-04T02:01:55.954Z,95292.45
2019-02-04T02:04:23.418Z,95271.36
2019-02-04T02:06:51.022Z,95275.39
2019-02-04T02:09:23.457Z,95284.18
2019-02-04T02:11:51.100Z,95284.91
2019-02-04T02:14:18.583Z,95281.45
2019-02-04T02:16:46.103Z,95293.77
2019-02-04T02:19:15.040Z,95294.19
2019-02-04T02:21:42.496Z,95311.83
2019-02-04T02:24:09.892Z,95314.77
2019-02-04T02:26:37.385Z,95311.33
2019-02-04T02:29:04.945Z,95306.55
2019-02-04T02:31:32.413Z,95326.86
2019-02-04T02:33:59.864Z,95320.49
2019-02-04T02:36:27.416Z,95326.33
2019-02-04T02:38:54.872Z,95318.75
2019-02-04T02:41:22.327Z,95321.89
2019-02-04T02:43:49.773Z,95316.08
2019-02-04T02:46:17.186Z,95309.33
2019-02-04T02:48:44.815Z,95314.56
2019-02-04T02:51:12.230Z,95314.23
2019-02-04T02:53:39.689Z,95320.07
2019-02-04T02:56:07.244Z,95324.11
2019-02-04T02:58:34.698Z,95319.75
2019-02-04T03:01:02.130Z,95329.73
2019-02-04T03:03:29.636Z,95325.39
2019-02-04T03:05:57.266Z,95336.67
2019-02-04T03:08:24.867Z,95344.50
2019-02-04T03:10:52.320Z,95346.11
2019-02-04T03:13:19.800Z,95332.20
2019-02-04T03:15:47.295Z,95328.92
2019-02-04T03:18:14.941Z,95321.92
2019-02-04T03:20:42.372Z,95331.44
2019-02-04T03:23:10.003Z,95331.44
2019-02-04T03:25:37.502Z,95327.39
2019-02-04T03:28:05.034Z,95327.73
2019-02-04T03:30:34.366Z,95331.43
2019-02-04T03:33:02.181Z,95337.89
2019-02-04T03:35:29.651Z,95333.57
2019-02-04T03:37:57.688Z,95342.56
2019-02-04T03:40:27.403Z,95343.48
2019-02-04T03:42:55.078Z,95336.34
2019-02-04T03:45:22.661Z,95337.34
2019-02-04T03:47:50.243Z,95331.39
2019-02-04T03:50:18.229Z,95347.38
2019-02-04T03:52:45.732Z,95346.16
2019-02-04T03:55:13.766Z,95348.44
2019-02-04T03:57:41.277Z,95352.88
2019-02-04T04:00:13.439Z,95341.45
2019-02-04T04:02:40.925Z,95343.24
2019-02-04T04:05:08.608Z,95335.59
2019-02-04T04:07:36.091Z,95342.45
2019-02-04T04:10:04.641Z,95328.88
2019-02-04T04:12:32.434Z,95331.38
2019-02-04T04:14:59.879Z,95330.84
2019-02-04T04:17:27.321Z,95332.36
2019-02-04T04:19:54.824Z,95338.59
2019-02-04T04:22:22.240Z,95339.29
2019-02-04T04:24:49.980Z,95342.92
2019-02-04T04:27:17.624Z,95344.04
2019-02-04T04:29:45.102Z,95355.31
2019-02-04T04:32:12.597Z,95356.83
2019-02-04T04:34:40.044Z,95347.75
2019-02-04T04:37:07.491Z,95357.08
2019-02-04T04:39:34.991Z,95353.45
2019-02-04T04:42:04.054Z,95351.34
2019-02-04T04:44:31.581Z,95341.00
2019-02-04T04:46:59.058Z,95350.56
2019-02-04T04:49:26.614Z,95339.07
2019-02-04T04:51:54.160Z,95277.75
2019-02-04T04:54:21.599Z,95381.25
2019-02-04T04:56:49.013Z,95371.82
2019-02-04T04:59:16.763Z,95382.16
2019-02-04T05:01:44.339Z,95378.72
2019-02-04T05:04:11.859Z,95381.82
2019-02-04T05:06:39.297Z,95377.78
2019-02-04T05:09:07.001Z,95389.28
2019-02-04T05:11:34.709Z,95381.64
2019-02-04T05:14:02.294Z,95396.05
2019-02-04T05:16:29.856Z,95383.60
2019-02-04T05:18:57.495Z,95399.61
2019-02-04T05:21:24.997Z,95390.63
2019-02-04T05:23:52.436Z,95401.98
2019-02-04T05:26:19.841Z,95397.07
2019-02-04T05:28:47.276Z,95394.48
2019-02-04T05:31:15.283Z,95396.13
2019-02-04T05:33:42.751Z,95408.70
2019-02-04T05:36:10.227Z,95409.38
2019-02-04T05:38:37.682Z,95417.28
2019-02-04T05:41:05.122Z,95418.64
2019-02-04T05:43:32.513Z,95410.67
2019-02-04T05:46:00.013Z,95412.13
2019-02-04T05:48:27.937Z,95414.05
2019-02-04T05:50:55.365Z,95420.66
2019-02-04T05:53:22.809Z,95432.94
2019-02-04T05:55:50.291Z,95432.61
2019-02-04T05:58:17.799Z,95438.17
2019-02-04T06:00:47.720Z,95437.39
2019-02-04T06:03:15.373Z,95442.45
2019-02-04T06:05:43.420Z,95435.42
2019-02-04T06:08:10.894Z,95441.52
2019-02-04T06:10:38.476Z,95444.73
2019-02-04T06:13:06.846Z,95444.80
2019-02-04T06:15:34.282Z,95449.45
2019-02-04T06:18:01.663Z,95444.89
2019-02-04T06:20:29.282Z,95450.36
2019-02-04T06:22:56.733Z,95448.41
2019-02-04T06:25:24.287Z,95445.03
2019-02-04T06:27:51.877Z,95456.13
2019-02-04T06:30:19.423Z,95458.27
2019-02-04T06:32:47.057Z,95461.35
2019-02-04T06:35:15.147Z,95462.28
2019-02-04T06:37:42.950Z,95460.05
2019-02-04T06:40:11.492Z,95457.19
2019-02-04T06:42:38.871Z,95470.45
2019-02-04T06:45:08.326Z,95454.52
2019-02-04T06:47:35.833Z,95456.69
2019-02-04T06:50:04.206Z,95459.09
2019-02-04T06:52:31.642Z,95452.56
2019-02-04T06:54:59.435Z,95458.61
2019-02-04T06:57:26.791Z,95459.42
2019-02-04T06:59:54.226Z,95473.61
2019-02-04T07:02:21.730Z,95461.73
2019-02-04T07:04:49.306Z,95465.82
2019-02-04T07:07:16.828Z,95460.70
2019-02-04T07:09:44.207Z,95472.76
2019-02-04T07:12:11.835Z,95491.34
2019-02-04T07:14:39.262Z,95498.21
2019-02-04T07:17:06.773Z,95494.03
2019-02-04T07:19:34.687Z,95496.52
2019-02-04T07:22:02.129Z,95497.25
2019-02-04T07:24:29.635Z,95498.60
2019-02-04T07:26:56.992Z,95508.09
2019-02-04T07:29:24.834Z,95506.20
2019-02-04T07:31:52.320Z,95511.48
2019-02-04T07:34:19.720Z,95499.51
2019-02-04T07:36:47.157Z,95507.50
2019-02-04T07:39:14.701Z,95517.63
2019-02-04T07:41:42.218Z,95523.95
2019-02-04T07:44:09.653Z,95520.97
2019-02-04T07:46:37.414Z,95529.53
2019-02-04T07:49:04.880Z,95529.66
2019-02-04T07:51:32.283Z,95534.36
2019-02-04T07:53:59.722Z,95527.59
2019-02-04T07:56:27.192Z,95527.71
2019-02-04T07:58:55.073Z,95530.42
2019-02-04T08:01:22.669Z,95537.41
2019-02-04T08:03:50.497Z,95533.90
2019-02-04T08:06:18.013Z,95547.58
2019-02-04T08:08:45.455Z,95555.36
2019-02-04T08:11:12.958Z,95555.29
2019-02-04T08:13:40.389Z,95561.11
2019-02-04T08:16:07.745Z,95552.75
2019-02-04T08:18:35.187Z,95554.61
2019-02-04T08:21:03.016Z,95551.81
2019-02-04T08:23:30.414Z,95561.19
2019-02-04T08:25:57.851Z,95564.95
2019-02-04T08:28:25.281Z,95565.91
2019-02-04T08:30:52.814Z,95565.21
2019-02-04T08:33:20.298Z,95563.13
2019-02-04T08:35:47.877Z,95558.86
2019-02-04T08:38:15.694Z,95560.13
2019-02-04T08:40:43.254Z,95562.41
2019-02-04T08:43:10.673Z,95554.62
2019-02-04T08:45:38.205Z,95549.83
2019-02-04T08:48:06.182Z,95558.68
2019-02-04T08:50:33.761Z,95558.92
2019-02-04T08:53:01.184Z,95563.28
2019-02-04T08:55:28.619Z,95554.81
2019-02-04T08:57:56.145Z,95566.00
2019-02-04T09:00:24.168Z,95571.07
2019-02-04T09:02:51.703Z,95570.48
2019-02-04T09:05:19.391Z,95573.67
2019-02-04T09:07:46.832Z,95568.58
2019-02-04T09:10:19.825Z,95577.69
2019-02-04T09:12:47.461Z,95569.66
2019-02-04T09:15:16.267Z,95558.52
2019-02-04T09:17:44.282Z,95557.75
2019-02-04T09:20:13.705Z,95561.81
2019-02-04T09:22:41.150Z,95562.70
2019-02-04T09:25:10.485Z,95558.66
2019-02-04T09:27:37.951Z,95568.07
2019-02-04T09:30:08.416Z,95568.34
2019-02-04T09:32:35.887Z,95560.48
2019-02-04T09:35:04.665Z,95565.27
2019-02-04T09:37:32.153Z,95555.05
2019-02-04T09:40:00.199Z,95564.06
2019-02-04T09:42:27.714Z,95557.11
2019-02-04T09:44:55.384Z,95559.70
2019-02-04T09:47:23.423Z,95562.32
2019-02-04T09:49:50.896Z,95557.92
2019-02-04T09:52:18.381Z,95552.63
2019-02-04T09:54:45.828Z,95546.69
2019-02-04T09:57:13.600Z,95547.36
2019-02-04T09:59:41.024Z,95547.21
2019-02-04T10:02:09.702Z,95547.22
2019-02-04T10:04:37.643Z,95546.50
2019-02-04T10:07:05.120Z,95543.61
2019-02-04T10:09:32.601Z,95537.57
2019-02-04T10:12:00.081Z,95535.03
2019-02-04T10:14:27.576Z,95530.92
2019-02-04T10:16:54.964Z,95530.47
2019-02-04T10:19:22.491Z,95521.71
2019-02-04T10:21:49.938Z,95523.23
2019-02-04T10:24:17.738Z,95514.62
2019-02-04T10:26:45.148Z,95515.98
2019-02-04T10:29:12.621Z,95517.80
2019-02-04T10:31:40.126Z,95512.81
2019-02-04T10:34:07.593Z,95507.98
2019-02-04T10:36:35.204Z,95508.00
2019-02-04T10:39:04.437Z,95509.66
2019-02-04T10:41:32.114Z,95508.88
2019-02-04T10:43:59.776Z,95517.13
2019-02-04T10:46:27.243Z,95515.27
2019-02-04T10:48:54.938Z,95516.16
2019-02-04T10:51:22.542Z,95506.88
2019-02-04T10:53:50.566Z,95496.53
2019-02-04T10:56:18.085Z,95491.39
2019-02-04T10:58:45.650Z,95487.47
2019-02-04T11:01:13.360Z,95488.37
2019-02-04T11:03:40.815Z,95496.67
2019-02-04T11:06:08.646Z,95500.25
2019-02-04T11:08:36.102Z,95490.73
2019-02-04T11:11:04.168Z,95486.66
2019-02-04T11:13:31.573Z,95495.75
2019-02-04T11:15:59.102Z,95491.79
2019-02-04T11:18:26.722Z,95496.75
2019-02-04T11:20:58.139Z,95491.19
2019-02-04T11:23:23.593Z,95484.69
2019-02-04T11:25:51.311Z,95475.61
2019-02-04T11:28:19.487Z,95481.48
2019-02-04T11:30:56.398Z,95490.37
2019-02-04T11:33:24.139Z,95488.27
2019-02-04T11:35:51.742Z,95488.44
2019-02-04T11:38:19.227Z,95484.38
2019-02-04T11:40:46.867Z,95482.27
2019-02-04T11:43:14.490Z,95487.01
2019-02-04T11:45:42.079Z,95490.04
2019-02-04T11:48:10.708Z,95485.64
2019-02-04T11:50:38.612Z,95496.51
2019-02-04T11:53:06.241Z,95492.73
2019-02-04T11:55:33.728Z,95489.87
2019-02-04T11:58:04.004Z,95480.94
2019-02-04T12:00:32.137Z,95484.90
2019-02-04T12:03:00.412Z,95480.53
2019-02-04T12:05:28.249Z,95477.81
2019-02-04T12:07:55.805Z,95474.34
2019-02-04T12:10:26.441Z,95469.05
2019-02-04T12:12:54.009Z,95470.83
2019-02-04T12:15:21.696Z,95474.73
2019-02-04T12:17:49.290Z,95471.07
2019-02-04T12:20:17.425Z,95477.45
2019-02-04T12:22:45.599Z,95476.99
2019-02-04T12:25:14.907Z,95473.47
2019-02-04T12:27:42.606Z,95469.19
2019-02-04T12:30:22.747Z,95470.14
2019-02-04T12:32:50.283Z,95467.43
2019-02-04T12:35:17.755Z,95463.11
2019-02-04T12:37:45.373Z,95471.44
2019-02-04T12:40:13.335Z,95470.85
2019-02-04T12:42:40.990Z,95463.63
2019-02-04T12:45:12.275Z,95471.50
2019-02-04T12:47:39.778Z,95466.20
2019-02-04T12:50:08.285Z,95463.53
2019-02-04T12:52:35.766Z,95466.44
2019-02-04T12:55:04.166Z,95471.11
2019-02-04T12:57:31.632Z,95462.95
2019-02-04T12:59:59.119Z,95460.52
2019-02-04T13:02:26.573Z,95451.94
2019-02-04T13:04:54.075Z,95451.49
2019-02-04T13:07:21.508Z,95461.31
2019-02-04T13:09:48.987Z,95457.34
2019-02-04T13:12:16.536Z,95457.02
2019-02-04T13:14:44.006Z,95460.96
2019-02-04T13:17:11.751Z,95457.48
2019-02-04T13:19:40.121Z,95469.70
2019-02-04T13:22:07.617Z,95460.67
2019-02-04T13:24:35.051Z,95454.94
2019-02-04T13:27:02.626Z,95460.95
2019-02-04T13:29:30.089Z,95458.10
2019-02-04T13:31:57.590Z,95460.78
2019-02-04T13:34:25.485Z,95464.25
2019-02-04T13:36:53.030Z,95464.98
2019-02-04T13:39:20.534Z,95463.30
2019-02-04T13:41:47.965Z,95468.22
2019-02-04T13:44:15.402Z,95466.08
2019-02-04T13:46:42.802Z,95474.11
2019-02-04T13:49:10.247Z,95469.72
2019-02-04T13:51:37.928Z,95477.44
2019-02-04T13:54:05.351Z,95474.84
2019-02-04T13:56:32.753Z,95477.15
2019-02-04T13:59:00.215Z,95474.27
2019-02-04T14:01:27.930Z,95478.77
2019-02-04T14:03:55.454Z,95473.20
2019-02-04T14:06:22.885Z,95477.72
2019-02-04T14:08:50.522Z,95475.14
2019-02-04T14:11:18.080Z,95476.89
2019-02-04T14:13:45.501Z,95469.23
2019-02-04T14:16:13.148Z,95460.75
2019-02-04T14:18:40.660Z,95463.57
2019-02-04T14:21:08.757Z,95465.98
2019-02-04T14:23:36.599Z,95465.42
2019-02-04T14:26:04.265Z,95465.92
2019-02-04T14:28:31.772Z,95450.02
2019-02-04T14:30:59.335Z,95457.00
2019-02-04T14:33:26.781Z,95464.70
2019-02-04T14:35:54.241Z,95465.98
2019-02-04T14:38:21.726Z,95468.15
2019-02-04T14:40:49.822Z,95461.89
2019-02-04T14:43:24.428Z,95456.36
2019-02-04T14:46:17.719Z,95461.22
2019-02-04T14:49:32.844Z,95453.73
2019-02-04T14:52:36.867Z,95462.52
2019-02-04T14:55:47.510Z,95462.52
2019-02-04T14:58:44.872Z,95460.63
2019-02-04T15:01:58.231Z,95456.83
2019-02-04T15:04:57.750Z,95455.38
2019-02-04T15:08:11.733Z,95456.89
2019-02-04T15:11:13.442Z,95454.48
2019-02-04T15:14:15.914Z,95454.34
2019-02-04T15:17:12.161Z,95453.30
2019-02-04T15:20:11.164Z,95453.16
2019-02-04T15:23:23.747Z,95453.02
2019-02-04T15:26:29.835Z,95453.64
2019-02-04T15:29:07.849Z,95452.77
2019-02-04T15:31:56.685Z,95461.22
2019-02-04T15:35:05.011Z,95465.43
2019-02-04T15:38:11.816Z,95472.22
2019-02-04T15:41:32.743Z,95474.95
2019-02-04T15:44:21.950Z,95478.82
2019-02-04T15:47:04.166Z,95470.05
2019-02-04T15:50:25.509Z,95484.20
2019-02-04T15:52:52.969Z,95481.02
2019-02-04T15:55:21.477Z,95481.16
2019-02-04T15:57:49.142Z,95486.30
2019-02-04T16:00:17.429Z,95481.76
2019-02-04T16:02:45.074Z,95491.83
2019-02-04T16:05:13.308Z,95484.28
2019-02-04T16:07:40.984Z,95481.42
2019-02-04T16:10:11.898Z,95488.50
2019-02-04T16:12:39.473Z,95486.86
2019-02-04T16:15:08.249Z,95486.22
2019-02-04T16:17:35.791Z,95491.30
2019-02-04T16:20:05.606Z,95506.05
2019-02-04T16:22:33.518Z,95504.22
2019-02-04T16:25:00.933Z,95502.22
2019-02-04T16:27:28.534Z,95507.28
2019-02-04T16:29:56.267Z,95505.02
2019-02-04T16:32:23.932Z,95510.84
2019-02-04T16:34:51.391Z,95517.63
2019-02-04T16:37:18.903Z,95521.84
2019-02-04T16:39:46.681Z,95520.66
2019-02-04T16:42:14.243Z,95533.89
2019-02-04T16:44:41.812Z,95536.27
2019-02-04T16:47:09.203Z,95539.49
2019-02-04T16:49:37.030Z,95546.70
2019-02-04T16:52:04.449Z,95542.34
2019-02-04T16:54:31.805Z,95553.34
2019-02-04T16:56:59.666Z,95551.50
2019-02-04T16:59:27.130Z,95549.05
2019-02-04T17:01:54.610Z,95554.37
2019-02-04T17:04:22.132Z,95553.55
2019-02-04T17:06:50.679Z,95559.78
2019-02-04T17:09:18.325Z,95560.23
2019-02-04T17:11:45.753Z,95556.92
2019-02-04T17:14:13.667Z,95563.05
2019-02-04T17:16:41.290Z,95562.86
2019-02-04T17:19:08.914Z,95571.50
2019-02-04T17:21:36.308Z,95571.76
2019-02-04T17:24:03.990Z,95560.88
2019-02-04T17:26:31.445Z,95570.80
2019-02-04T17:28:58.879Z,95577.34
2019-02-04T17:31:27.157Z,95582.62
2019-02-04T17:33:55.367Z,95591.47
2019-02-04T17:36:22.872Z,95591.47
2019-02-04T17:38:50.324Z,95591.05
2019-02-04T17:41:18.423Z,95594.89
2019-02-04T17:43:45.839Z,95591.73
2019-02-04T17:46:13.334Z,95577.35
2019-02-04T17:48:45.181Z,95587.64
2019-02-04T17:51:13.535Z,95595.64
2019-02-04T17:53:44.059Z,95592.83
2019-02-04T17:56:11.918Z,95601.20
2019-02-04T17:58:39.369Z,95596.45
2019-02-04T18:01:07.323Z,95593.36
2019-02-04T18:03:35.380Z,95592.49
2019-02-04T18:06:03.258Z,95594.72
2019-02-04T18:08:31.273Z,95606.13
2019-02-04T18:11:00.183Z,95605.21
2019-02-04T18:13:27.918Z,95602.59
2019-02-04T18:15:55.465Z,95615.37
2019-02-04T18:18:23.344Z,95614.86
2019-02-04T18:20:51.768Z,95623.57
2019-02-04T18:23:19.219Z,95630.00
2019-02-04T18:25:46.575Z,95628.38
2019-02-04T18:28:14.230Z,95623.44
2019-02-04T18:30:41.682Z,95627.49
2019-02-04T18:33:09.697Z,95630.21
2019-02-04T18:35:38.074Z,95622.80
2019-02-04T18:38:05.769Z,95626.98
2019-02-04T18:40:33.254Z,95621.81
2019-02-04T18:43:00.727Z,95625.73
2019-02-04T18:45:29.301Z,95628.76
2019-02-04T18:47:57.127Z,95623.50
2019-02-04T18:50:25.986Z,95624.13
2019-02-04T18:52:53.753Z,95633.59
2019-02-04T18:55:24.855Z,95631.38
2019-02-04T18:57:52.445Z,95633.66
2019-02-04T19:00:22.125Z,95639.78
2019-02-04T19:02:52.892Z,95644.78
2019-02-04T19:05:26.884Z,95644.23
2019-02-04T19:07:54.627Z,95637.52
2019-02-04T19:10:22.330Z,95637.30
2019-02-04T19:12:50.423Z,95635.30
2019-02-04T19:15:19.724Z,95637.16
2019-02-04T19:17:47.732Z,95635.50
2019-02-04T19:20:21.745Z,95638.70
2019-02-04T19:22:52.906Z,95649.58
2019-02-04T19:25:21.161Z,95645.16
2019-02-04T19:27:49.993Z,95634.42
2019-02-04T19:30:47.947Z,95628.24
2019-02-04T19:33:19.109Z,95631.60
2019-02-04T19:35:46.849Z,95638.81
2019-02-04T19:38:14.554Z,95641.94
2019-02-04T19:40:42.116Z,95641.33
2019-02-04T19:43:14.382Z,95642.49
2019-02-04T19:45:45.788Z,95635.88
2019-02-04T19:48:14.036Z,95612.63
2019-02-04T19:50:41.909Z,95645.27
2019-02-04T19:53:09.410Z,95637.88
2019-02-04T19:55:37.122Z,95647.33
2019-02-04T19:58:06.884Z,95636.11
2019-02-04T20:00:34.799Z,95642.09
2019-02-04T20:03:02.615Z,95644.22
2019-02-04T20:05:30.975Z,95646.31
2019-02-04T20:07:58.715Z,95648.00
2019-02-04T20:10:27.313Z,95650.03
2019-02-04T20:12:55.066Z,95644.79
2019-02-04T20:15:24.910Z,95651.12
2019-02-04T20:17:52.486Z,95661.85
2019-02-04T20:20:20.447Z,95659.47
2019-02-04T20:22:48.124Z,95656.86
2019-02-04T20:25:18.523Z,95658.98
2019-02-04T20:27:45.974Z,95666.46
2019-02-04T20:30:18.961Z,95663.52
2019-02-04T20:32:51.600Z,95671.95
2019-02-04T20:35:19.837Z,95663.69
2019-02-04T20:37:47.543Z,95668.22
2019-02-04T20:40:16.834Z,95660.98
2019-02-04T20:42:44.424Z,95669.92
2019-02-04T20:45:12.708Z,95668.58
2019-02-04T20:47:40.590Z,95673.51
2019-02-04T20:50:11.758Z,95668.64
2019-02-04T20:52:39.135Z,95665.59
2019-02-04T20:55:09.204Z,95666.39
2019-02-04T20:57:36.596Z,95662.25
2019-02-04T21:00:06.816Z,95651.36
2019-02-04T21:02:34.573Z,95661.27
2019-02-04T21:05:02.392Z,95665.93
2019-02-04T21:07:29.741Z,95661.44
2019-02-04T21:09:57.180Z,95657.59
2019-02-04T21:12:24.615Z,95657.49
2019-02-04T21:14:52.172Z,95664.95
2019-02-04T21:17:19.680Z,95668.16
2019-02-04T21:19:47.514Z,95671.77
2019-02-04T21:22:14.954Z,95675.37
2019-02-04T21:24:42.383Z,95672.51
2019-02-04T21:27:09.957Z,95669.04
2019-02-04T21:29:39.013Z,95661.40
2019-02-04T21:32:06.740Z,95661.40
2019-02-04T21:34:34.166Z,95659.27
2019-02-04T21:37:01.831Z,95669.67
2019-02-04T21:39:29.513Z,95676.08
2019-02-04T21:41:56.961Z,95676.92
2019-02-04T21:44:24.394Z,95671.92
2019-02-04T21:46:51.776Z,95676.98
2019-02-04T21:49:19.222Z,95678.45
2019-02-04T21:51:46.682Z,95683.47
2019-02-04T21:54:14.541Z,95684.84
2019-02-04T21:56:41.916Z,95683.94
2019-02-04T21:59:09.405Z,95687.81
2019-02-04T22:01:37.027Z,95683.27
2019-02-04T22:04:04.974Z,95679.27
2019-02-04T22:06:32.435Z,95677.69
2019-02-04T22:08:59.865Z,95683.14
2019-02-04T22:11:27.282Z,95680.44
2019-02-04T22:13:55.096Z,95688.98
2019-02-04T22:16:22.545Z,95674.11
2019-02-04T22:18:50.139Z,95679.43
2019-02-04T22:21:17.555Z,95677.13
2019-02-04T22:23:45.002Z,95670.97
2019-02-04T22:26:12.507Z,95684.05
2019-02-04T22:28:39.917Z,95689.72
2019-02-04T22:31:07.366Z,95689.56
2019-02-04T22:33:34.796Z,95685.92
2019-02-04T22:36:02.307Z,95685.28
2019-02-04T22:38:29.861Z,95689.48
2019-02-04T22:40:57.293Z,95695.43
2019-02-04T22:43:24.703Z,95702.44
2019-02-04T22:45:52.223Z,95703.35
2019-02-04T22:48:20.207Z,95708.45
2019-02-04T22:50:47.575Z,95704.70
2019-02-04T22:53:15.010Z,95704.16
2019-02-04T22:55:42.568Z,95693.59
2019-02-04T22:58:09.980Z,95698.19
2019-02-04T23:00:46.094Z,95699.24
2019-02-04T23:03:14.794Z,95697.70
2019-02-04T23:05:42.445Z,95705.81
2019-02-04T23:08:09.907Z,95711.66
2019-02-04T23:10:37.796Z,95701.09
2019-02-04T23:13:05.915Z,95707.33
2019-02-04T23:15:33.368Z,95701.84
2019-02-04T23:18:01.863Z,95696.29
2019-02-04T23:20:29.890Z,95701.34
2019-02-04T23:22:57.573Z,95698.46
2019-02-04T23:25:25.589Z,95700.08
2019-02-04T23:27:53.889Z,95686.03
2019-02-04T23:30:22.576Z,95675.58
2019-02-04T23:32:51.238Z,95687.94
2019-02-04T23:35:19.465Z,95675.38
2019-02-04T23:37:48.127Z,95676.55
2019-02-04T23:40:16.662Z,95678.90
2019-02-04T23:42:44.086Z,95670.56
2019-02-04T23:45:11.669Z,95660.88
2019-02-04T23:47:39.083Z,95657.95
2019-02-04T23:50:07.203Z,95663.98
2019-02-04T23:52:35.090Z,95663.41
2019-02-04T23:55:03.378Z,95666.33
2019-02-04T23:57:31.264Z,95682.22
2019-02-04T23:59:58.972Z,95683.02
